KMANKMYL

Guest
Details From KMAN - NAMPA MUNI
To KMYL - Mc Call Muni
Flight Number -
Tags generated
Created
Modified
Stats Distance 81 nm / 150 km
Max Altitude 3,600 ft / 1,097 m
Waypoints 3
Social Downloads 0
Likes 0
Share VATSIM

Download

Looking for another format? Having issues loading an existing format? Contact us
Advertisement - Login to hide

Notes

Basic altitude profile: - Ascent Rate: 500ft/min - Ascent Speed: 100kts - Cruise Altitude: 4600ft - Cruise Speed: 110kts - Descent Rate: 500ft/min - Descent Speed: 80kts Options: - Use NATs: no - Use PACOTS: no - Use low airways: yes - Use high airways: no

Route

KMAN NICPE KMYL

ID Type Via Altitude Latitude Longitude Leg Dist Tot Dist Heading (true) Name
O KMAN APT - 0 ft / 0 m 43.58134˚ -116.52306˚ - 0 nm - NAMPA MUNI
NICPE FIX - 3,600 ft / 1,097 m 43.73497˚ -116.41475˚ 10 nm 10 nm 27° / 27° -
O KMYL APT - 0 ft / 0 m 44.88874˚ -116.10175˚ 70 nm 80 nm 11° / 11° Mc Call Muni

Altitude Profile

Advertisement - Login to hide

KMAN

Details ICAO KMAN
Name NAMPA MUNI
Region United States
Timezone America/Boise (UTC-7.0)
Stats Elevation 2,537 ft / 773 m (AMSL)
Location 43.581342° -116.523062°
Runways 1
Magnetic Variation 13.451° E

METAR

KMAN 131315Z AUTO 00000KT 5SM BR OVC005 M05/M05 A3048 RMK A01

Decode

TAF

Not found

Departure Runways

ID Width Length Bearing (true) Bearing (mag) Surface Threshold Offset Overrun Length
11 75 ft / 23 m 4,994 ft / 1,522 m 125.74° 112.29° Asphalt 0 ft / 0 m 0 ft / 0 m
29 75 ft / 23 m 4,994 ft / 1,522 m 305.76° 292.31° Asphalt 0 ft / 0 m 0 ft / 0 m

KMYL

Details ICAO KMYL (MYL)
Name Mc Call Muni
Region United States
Timezone America/Boise (UTC-7.0)
Stats Elevation 5,020 ft / 1,530 m (AMSL)
Location 44.888738° -116.101747°
Runways 1
Magnetic Variation 13.585° E

METAR

KMYL 131251Z AUTO 00000KT 10SM OVC100 M06/M08 A3030 RMK AO2 SLP308 T10611078

Decode

TAF

KMYL 131131Z 1312/1412 VRB03KT P6SM BKN100 FM131400 VRB03KT 6SM -SN BR OVC030 FM140400 VRB03KT 3SM -SN BR BKN008

Decode

Destination Runways

ID Width Length Bearing (true) Bearing (mag) Surface Threshold Offset Overrun Length
16 75 ft / 23 m 6,113 ft / 1,863 m 178.61° 165.03° Asphalt 0 ft / 0 m 56 ft / 17 m
34 75 ft / 23 m 6,113 ft / 1,863 m 358.61° 345.03° Asphalt 0 ft / 0 m 0 ft / 0 m